LIPR/RMI METAR and TAF weather

Enter ICAO airport designator
Station Type Date Time Source
LIPR METAR 2021/04/17 03:20 UTC NOAA

LIPR 170320Z AUTO 26003KT 9999 SCT240/// 02/M01 Q1016


Station Type Date Time Source
LIPR Decoded METAR 2021/04/17 03:20 UTC NOAA

Rimini, Italy (LIPR) 44-02N 012-37E 13M
Apr 16, 2021 - 11:20 PM EDT / 2021.04.17 0320 UTC
Wind: from the W (260 degrees) at 3 MPH (3 KT):0
Visibility: greater than 7 mile(s):0
Sky conditions: partly cloudy
Temperature: 35 F (2 C)
Dew Point: 30 F (-1 C)
Relative Humidity: 80%
Pressure (altimeter): 30.00 in. Hg (1016 hPa)
ob: LIPR 170320Z AUTO 26003KT 9999 SCT240/// 02/M01 Q1016
cycle: 3

Station Type Date Time Source
LIPR TAF 2016/08/23 03:00 UTC NOAA

TAF LIPR 230200Z 2303/2312 04007KT CAVOK
BECMG 2308/2310 02010KT

Example: see airport list